This is the latest recevied weather packets stored in our database for station/object SM7SJR-13. If no packets are shown the sender has not sent any weather packets the latest 10 day(s).
| Time | Temp. | Humidity | Pressure | Rain* | Wind** | Luminosity | Snow |
|---|---|---|---|---|---|---|---|
| 1777786204 | 16.11° C | 65% | 1008 hPa | 0 mm | - | 248 W/m² | - |
| 1777785304 | 15.56° C | 66% | 1008.1 hPa | 0 mm | - | 192 W/m² | - |
| 1777783504 | 12.78° C | 78% | 1008.1 hPa | 0 mm | - | 169 W/m² | - |
| 1777782604 | 11.11° C | 84% | 1008.1 hPa | 0 mm | - | 63 W/m² | - |
| 1777781704 | 10° C | 85% | 1008.1 hPa | 0 mm | - | 88 W/m² | - |
| 1777780804 | 9.44° C | 83% | 1008.1 hPa | 0 mm | - | 54 W/m² | - |
| 1777776303 | 12.78° C | 70% | 1008.2 hPa | 0 mm | - | 0 W/m² | - |
| 1777772704 | 14.44° C | 64% | 1008.4 hPa | 0 mm | - | 0 W/m² | - |
| 1777766404 | 15° C | 61% | 1009 hPa | 0 mm | - | 0 W/m² | - |
| 1777765504 | 14.44° C | 62% | 1009 hPa | 0 mm | - | 0 W/m² | - |
| 1777757404 | 15° C | 60% | 1010.3 hPa | 0 mm | - | 0 W/m² | - |
| 1777756504 | 14.44° C | 61% | 1010.3 hPa | 0 mm | - | 0 W/m² | - |
| 1777745704 | 21.11° C | 42% | 1009.6 hPa | 0 mm | - | 11 W/m² | - |
| 1777743904 | 21.67° C | 41% | 1009.5 hPa | 0 mm | - | 18 W/m² | - |
| 1777741204 | 23.33° C | 37% | 1009.6 hPa | 0 mm | - | 26 W/m² | - |
| 1777737605 | 24.44° C | 38% | 1010 hPa | 0 mm | - | 35 W/m² | - |
| 1777734004 | 25.56° C | 35% | 1010.8 hPa | 0 mm | - | 415 W/m² | - |
| 1777720504 | 25° C | 32% | 1014.2 hPa | 0 mm | - | 696 W/m² | - |
| 1777718703 | 25° C | 33% | 1014.6 hPa | 0 mm | - | 737 W/m² | - |
| 1777717804 | 25° C | 33% | 1015.2 hPa | 0 mm | - | 733 W/m² | - |
| 1777710604 | 21.67° C | 42% | 1016.9 hPa | 0 mm | - | 587 W/m² | - |
| 1777707904 | 20.56° C | 43% | 1017.3 hPa | 0 mm | - | 387 W/m² | - |
| 1777704304 | 18.33° C | 47% | 1017.7 hPa | 0 mm | - | 448 W/m² | - |
| 1777698004 | 12.22° C | 69% | 1018.5 hPa | 0 mm | - | 130 W/m² | - |
| 1777693505 | 7.22° C | 79% | 1018.7 hPa | 0 mm | - | 18 W/m² | - |
* Rain latest hour (hover to see other rain measurements)
** Current wind speed in m/s (hover to see current wind gust speed)